Time;durP1;ratioP1;P1;durP2;ratioP2;P2;SDS_P1;SDS_P2;PMS_P1;PMS_P2;Temp;Humidity;BMP_temperature;BMP_pressure;BME280_temperature;BME280_humidity;BME280_pressure;Samples;Min_cycle;Max_cycle;Signal;HPM_P1;HPM_P2
2023/01/12 00:01:31;;;;;;;4.30;0.88;;;;;;;;;;4968426;28;20149;-72
2023/01/12 00:03:58;;;;;;;4.85;1.60;;;;;;;;;;4969496;28;20047;-72
2023/01/12 00:06:25;;;;;;;6.82;1.10;;;;;;;;;;4978968;28;20045;-73
2023/01/12 00:08:52;;;;;;;4.97;1.17;;;;;;;;;;4974602;28;20498;-73
2023/01/12 00:11:19;;;;;;;5.82;1.08;;;;;;;;;;4975617;28;20034;-73
2023/01/12 00:13:45;;;;;;;3.17;1.02;;;;;;;;;;4975485;28;20029;-73
2023/01/12 00:16:34;;;;;;;5.93;0.93;;;;;;;;;;4971160;28;20076;-73
2023/01/12 00:19:10;;;;;;;7.82;0.98;;;;;;;;;;4977921;28;20033;-73
2023/01/12 00:22:00;;;;;;;6.35;1.08;;;;;;;;;;4976065;28;20049;-73
2023/01/12 00:24:24;;;;;;;5.85;2.00;;;;;;;;;;4971772;28;20078;-72
2023/01/12 00:26:51;;;;;;;9.48;1.25;;;;;;;;;;4972744;28;20069;-72
2023/01/12 00:29:17;;;;;;;2.92;0.90;;;;;;;;;;4973021;28;20105;-73
2023/01/12 00:31:43;;;;;;;8.75;1.50;;;;;;;;;;4978454;28;20088;-72
2023/01/12 00:34:09;;;;;;;12.95;2.20;;;;;;;;;;4972413;28;20610;-72
2023/01/12 00:36:36;;;;;;;10.02;1.40;;;;;;;;;;4974224;28;20137;-72
2023/01/12 00:39:02;;;;;;;12.13;1.90;;;;;;;;;;4974899;28;20029;-73
2023/01/12 00:46:58;;;;;;;5.88;1.00;;;;;;;;;;4972836;28;20046;-73
2023/01/12 00:49:24;;;;;;;5.28;1.50;;;;;;;;;;4971059;28;20114;-72
2023/01/12 00:51:50;;;;;;;8.27;1.02;;;;;;;;;;4973517;28;20030;-72
2023/01/12 00:54:16;;;;;;;6.38;2.25;;;;;;;;;;4972249;28;20031;-72
2023/01/12 00:56:43;;;;;;;11.88;1.67;;;;;;;;;;4970492;28;20080;-73
2023/01/12 00:59:09;;;;;;;5.97;1.98;;;;;;;;;;4975068;28;20022;-73
2023/01/12 01:01:35;;;;;;;7.30;1.50;;;;;;;;;;4975144;28;21190;-73
2023/01/12 01:04:01;;;;;;;4.55;1.33;;;;;;;;;;4971449;28;20050;-72
2023/01/12 01:06:27;;;;;;;6.80;1.50;;;;;;;;;;4977850;28;20038;-73
2023/01/12 01:08:54;;;;;;;4.70;1.50;;;;;;;;;;4976621;28;20077;-72
2023/01/12 01:11:20;;;;;;;6.90;1.63;;;;;;;;;;4977051;28;20029;-72
2023/01/12 01:13:47;;;;;;;7.28;1.65;;;;;;;;;;4975433;28;20030;-73
2023/01/12 01:16:14;;;;;;;6.90;1.60;;;;;;;;;;4978115;28;20018;-73
2023/01/12 01:18:41;;;;;;;9.55;1.42;;;;;;;;;;4974498;28;20089;-72
2023/01/12 01:21:11;;;;;;;4.35;1.10;;;;;;;;;;4976336;28;20033;-73
2023/01/12 01:23:37;;;;;;;5.80;1.20;;;;;;;;;;4978776;28;20038;-73
2023/01/12 01:26:08;;;;;;;7.68;1.35;;;;;;;;;;4976992;28;20527;-72
2023/01/12 01:28:35;;;;;;;7.18;1.50;;;;;;;;;;4972913;28;20034;-72
2023/01/12 01:31:02;;;;;;;4.93;1.30;;;;;;;;;;4975712;28;20081;-72
2023/01/12 01:33:28;;;;;;;7.40;1.30;;;;;;;;;;4977952;28;20114;-72
2023/01/12 01:35:56;;;;;;;8.35;1.42;;;;;;;;;;4980187;28;20026;-72
2023/01/12 01:38:22;;;;;;;5.07;1.02;;;;;;;;;;4973857;28;20035;-72
2023/01/12 01:40:48;;;;;;;7.18;1.23;;;;;;;;;;4976838;28;20022;-72
2023/01/12 01:43:16;;;;;;;4.82;1.50;;;;;;;;;;4971461;28;20033;-72
2023/01/12 01:45:45;;;;;;;6.38;1.30;;;;;;;;;;4979467;28;20022;-72
2023/01/12 01:48:13;;;;;;;2.75;1.02;;;;;;;;;;4978556;28;20084;-71
2023/01/12 01:50:40;;;;;;;7.32;1.17;;;;;;;;;;4972659;28;20041;-72
2023/01/12 01:53:13;;;;;;;7.50;1.30;;;;;;;;;;4974084;28;20037;-73
2023/01/12 01:55:47;;;;;;;9.10;1.50;;;;;;;;;;4976522;28;20149;-72
2023/01/12 01:58:16;;;;;;;4.65;1.38;;;;;;;;;;4972221;28;20139;-72
2023/01/12 02:00:43;;;;;;;6.10;1.20;;;;;;;;;;4976088;28;20026;-73
2023/01/12 02:03:10;;;;;;;7.82;1.60;;;;;;;;;;4979344;28;20125;-72
2023/01/12 02:05:37;;;;;;;2.63;0.90;;;;;;;;;;4970243;28;20023;-72
2023/01/12 02:08:26;;;;;;;7.97;1.17;;;;;;;;;;4975146;28;20057;-72
2023/01/12 02:10:53;;;;;;;4.18;1.02;;;;;;;;;;4946929;28;20639;-72
2023/01/12 02:16:21;;;;;;;5.95;1.92;;;;;;;;;;4972257;28;20150;-72
2023/01/12 02:19:06;;;;;;;5.47;1.27;;;;;;;;;;4978107;28;20030;-72
2023/01/12 02:21:51;;;;;;;3.88;1.10;;;;;;;;;;4971882;28;20050;-72
2023/01/12 02:24:40;;;;;;;7.15;0.85;;;;;;;;;;4973255;28;20023;-72
2023/01/12 02:27:24;;;;;;;4.18;1.05;;;;;;;;;;4967475;28;20057;-72
2023/01/12 02:30:09;;;;;;;3.58;1.00;;;;;;;;;;4975909;28;20089;-72
2023/01/12 02:32:35;;;;;;;5.00;1.13;;;;;;;;;;4973765;28;20030;-71
2023/01/12 02:35:14;;;;;;;3.65;1.08;;;;;;;;;;4975431;28;20525;-72
2023/01/12 02:37:40;;;;;;;5.20;1.10;;;;;;;;;;4974061;28;20114;-72
2023/01/12 02:40:13;;;;;;;4.82;1.10;;;;;;;;;;4970931;28;20023;-72
2023/01/12 02:43:12;;;;;;;5.45;0.85;;;;;;;;;;4975224;28;20031;-72
2023/01/12 02:45:38;;;;;;;3.90;1.20;;;;;;;;;;4944726;28;20405;-72
2023/01/12 02:48:14;;;;;;;6.05;0.95;;;;;;;;;;4979420;28;20723;-72
2023/01/12 02:50:43;;;;;;;3.35;1.05;;;;;;;;;;4976809;28;20041;-73
2023/01/12 02:53:12;;;;;;;3.95;1.50;;;;;;;;;;4975500;28;20030;-72
2023/01/12 02:55:39;;;;;;;6.40;1.30;;;;;;;;;;4972167;28;20035;-72
2023/01/12 02:58:07;;;;;;;5.90;1.20;;;;;;;;;;4973527;28;20053;-72
2023/01/12 03:00:36;;;;;;;4.68;1.38;;;;;;;;;;4974402;28;20034;-72
2023/01/12 03:03:03;;;;;;;3.00;0.95;;;;;;;;;;4976399;28;20058;-72
2023/01/12 03:05:29;;;;;;;5.75;1.55;;;;;;;;;;4972019;28;20034;-72
2023/01/12 03:07:57;;;;;;;3.72;1.40;;;;;;;;;;4972437;28;20036;-72
2023/01/12 03:10:50;;;;;;;5.30;1.20;;;;;;;;;;4976723;28;20080;-72
2023/01/12 03:13:17;;;;;;;4.97;1.23;;;;;;;;;;4971870;28;20034;-72
2023/01/12 03:15:46;;;;;;;6.15;1.45;;;;;;;;;;4972891;28;20081;-72
2023/01/12 03:18:23;;;;;;;2.42;0.90;;;;;;;;;;4973701;28;20085;-72
2023/01/12 03:20:58;;;;;;;4.72;1.20;;;;;;;;;;4973814;28;20035;-71
2023/01/12 03:23:28;;;;;;;5.43;0.98;;;;;;;;;;4978253;28;20049;-72
2023/01/12 03:25:55;;;;;;;3.75;1.15;;;;;;;;;;4972786;28;20027;-72
2023/01/12 03:28:24;;;;;;;6.60;1.27;;;;;;;;;;4977479;28;20069;-72
2023/01/12 03:30:59;;;;;;;3.58;0.88;;;;;;;;;;4973850;28;20360;-72
2023/01/12 03:33:25;;;;;;;8.13;1.58;;;;;;;;;;4976780;28;20113;-72
2023/01/12 03:35:56;;;;;;;4.35;1.17;;;;;;;;;;4976456;28;20630;-72
2023/01/12 03:38:45;;;;;;;6.43;1.63;;;;;;;;;;4974082;28;20117;-72
2023/01/12 03:41:22;;;;;;;4.93;1.33;;;;;;;;;;4967786;28;20046;-72
2023/01/12 03:43:50;;;;;;;4.75;1.35;;;;;;;;;;4973475;28;20197;-72
2023/01/12 03:46:21;;;;;;;5.80;1.40;;;;;;;;;;4974812;28;20501;-73
2023/01/12 03:48:53;;;;;;;4.97;1.00;;;;;;;;;;4971063;28;20042;-72
2023/01/12 03:51:24;;;;;;;6.25;1.42;;;;;;;;;;4975656;28;20248;-72
2023/01/12 03:53:51;;;;;;;3.30;1.00;;;;;;;;;;4970283;28;20022;-72
2023/01/12 03:56:19;;;;;;;7.85;1.45;;;;;;;;;;4975570;28;20097;-72
2023/01/12 03:58:46;;;;;;;6.05;1.38;;;;;;;;;;4977784;28;20041;-72
2023/01/12 04:01:12;;;;;;;11.45;1.50;;;;;;;;;;4976511;28;20039;-71
2023/01/12 04:03:38;;;;;;;6.32;1.40;;;;;;;;;;4972004;28;20043;-72
2023/01/12 04:06:05;;;;;;;6.20;1.10;;;;;;;;;;4974826;28;20227;-72
2023/01/12 04:08:32;;;;;;;5.57;1.35;;;;;;;;;;4977482;28;20030;-72
2023/01/12 04:10:58;;;;;;;6.38;1.55;;;;;;;;;;4974070;28;20037;-72
2023/01/12 04:13:24;;;;;;;5.65;1.42;;;;;;;;;;4973616;28;20026;-72
2023/01/12 04:15:50;;;;;;;4.18;1.42;;;;;;;;;;4973047;28;20050;-72
2023/01/12 04:18:17;;;;;;;3.92;1.48;;;;;;;;;;4973493;28;20030;-71
2023/01/12 04:20:43;;;;;;;4.30;0.95;;;;;;;;;;4970438;28;20114;-72
2023/01/12 04:23:09;;;;;;;4.80;1.08;;;;;;;;;;4976769;28;20358;-72
2023/01/12 04:25:35;;;;;;;9.32;2.30;;;;;;;;;;4971622;28;20018;-73
2023/01/12 04:28:02;;;;;;;4.78;1.45;;;;;;;;;;4972264;28;20038;-72
2023/01/12 04:30:29;;;;;;;5.05;1.60;;;;;;;;;;4973563;28;20861;-72
2023/01/12 04:32:56;;;;;;;5.40;1.60;;;;;;;;;;4969569;28;20435;-72
2023/01/12 04:35:23;;;;;;;5.50;2.00;;;;;;;;;;4976579;28;20026;-73
2023/01/12 04:37:49;;;;;;;6.85;1.90;;;;;;;;;;4977102;28;20617;-71
2023/01/12 04:40:16;;;;;;;6.38;1.95;;;;;;;;;;4973399;28;20026;-72
2023/01/12 04:43:07;;;;;;;7.07;1.80;;;;;;;;;;4976716;28;20042;-73
2023/01/12 04:45:35;;;;;;;8.07;1.65;;;;;;;;;;4976417;28;20072;-72
2023/01/12 04:48:09;;;;;;;5.50;1.95;;;;;;;;;;4976576;28;20546;-72
2023/01/12 04:50:36;;;;;;;6.90;1.83;;;;;;;;;;4974974;28;20101;-72
2023/01/12 04:53:03;;;;;;;6.82;1.65;;;;;;;;;;4975291;28;20042;-72
2023/01/12 04:55:29;;;;;;;3.50;1.33;;;;;;;;;;4975750;28;20072;-72
2023/01/12 04:57:56;;;;;;;6.95;1.65;;;;;;;;;;4974422;28;20023;-72
2023/01/12 05:00:22;;;;;;;3.67;1.48;;;;;;;;;;4980289;28;20645;-72
2023/01/12 05:02:49;;;;;;;7.35;1.83;;;;;;;;;;4977880;28;20410;-72
2023/01/12 05:05:15;;;;;;;3.63;1.52;;;;;;;;;;4981350;28;20026;-72
2023/01/12 05:10:21;;;;;;;6.35;1.48;;;;;;;;;;4976489;28;20198;-72
2023/01/12 05:10:28;;;;;;;5.68;1.70;;;;;;;;;;4975968;28;20454;-72
2023/01/12 05:12:55;;;;;;;3.95;1.50;;;;;;;;;;4978279;28;20130;-72
2023/01/12 05:15:21;;;;;;;5.43;1.50;;;;;;;;;;4979593;28;20387;-72
2023/01/12 05:17:47;;;;;;;7.07;1.33;;;;;;;;;;4977804;28;20104;-72
2023/01/12 05:20:13;;;;;;;3.88;1.27;;;;;;;;;;4978950;28;20031;-72
2023/01/12 05:22:39;;;;;;;3.40;1.13;;;;;;;;;;4976245;28;20536;-72
2023/01/12 05:25:06;;;;;;;6.30;1.50;;;;;;;;;;4975700;28;20078;-72
2023/01/12 05:27:32;;;;;;;2.75;1.27;;;;;;;;;;4978491;28;20042;-72
2023/01/12 05:29:58;;;;;;;7.03;1.48;;;;;;;;;;4974871;28;20565;-72
2023/01/12 05:32:25;;;;;;;4.55;1.65;;;;;;;;;;4972648;28;20066;-72
2023/01/12 05:34:51;;;;;;;2.67;1.10;;;;;;;;;;4979838;28;20570;-72
2023/01/12 05:37:18;;;;;;;4.05;1.92;;;;;;;;;;4978877;28;20034;-73
2023/01/12 05:39:44;;;;;;;5.72;1.45;;;;;;;;;;4971543;28;20030;-72
2023/01/12 05:44:55;;;;;;;2.97;1.20;;;;;;;;;;4972664;28;20038;-72
2023/01/12 05:47:21;;;;;;;3.45;1.63;;;;;;;;;;4975475;28;20023;-72
2023/01/12 05:49:47;;;;;;;4.47;1.60;;;;;;;;;;4977049;28;20018;-72
2023/01/12 05:52:14;;;;;;;10.10;3.55;;;;;;;;;;4981305;28;20037;-72
2023/01/12 05:54:40;;;;;;;5.22;1.27;;;;;;;;;;4974632;28;20028;-73
2023/01/12 05:57:06;;;;;;;5.30;1.42;;;;;;;;;;4977168;28;20434;-72
2023/01/12 05:59:32;;;;;;;6.18;2.00;;;;;;;;;;4975319;28;20062;-72
2023/01/12 06:01:58;;;;;;;3.85;1.25;;;;;;;;;;4978188;28;20399;-73
2023/01/12 06:04:24;;;;;;;7.32;1.73;;;;;;;;;;4974731;28;20026;-72
2023/01/12 06:06:52;;;;;;;4.65;1.50;;;;;;;;;;4979838;28;20023;-72
2023/01/12 06:09:18;;;;;;;5.18;1.58;;;;;;;;;;4975476;28;20426;-73
2023/01/12 06:14:29;;;;;;;5.35;1.60;;;;;;;;;;4977663;28;20033;-72
2023/01/12 06:16:56;;;;;;;6.57;1.50;;;;;;;;;;4972881;28;20053;-72
2023/01/12 06:19:22;;;;;;;5.47;1.38;;;;;;;;;;4969711;28;20058;-72
2023/01/12 06:21:48;;;;;;;6.03;1.75;;;;;;;;;;4978210;28;20041;-72
2023/01/12 06:24:14;;;;;;;4.90;1.73;;;;;;;;;;4970910;28;20125;-72
2023/01/12 06:26:43;;;;;;;2.65;1.42;;;;;;;;;;4972284;28;20084;-72
2023/01/12 06:29:10;;;;;;;3.47;1.50;;;;;;;;;;4975260;28;20542;-72
2023/01/12 06:31:37;;;;;;;2.83;1.35;;;;;;;;;;4979137;28;20106;-72
2023/01/12 06:34:03;;;;;;;3.03;1.17;;;;;;;;;;4974272;28;20494;-72
2023/01/12 06:36:30;;;;;;;3.40;1.10;;;;;;;;;;4978820;28;20065;-73
2023/01/12 06:38:56;;;;;;;5.57;1.75;;;;;;;;;;4979671;28;20037;-72
2023/01/12 06:44:07;;;;;;;4.30;1.60;;;;;;;;;;4971248;28;20391;-73
2023/01/12 06:46:33;;;;;;;3.22;1.17;;;;;;;;;;4972262;28;20497;-72
2023/01/12 06:48:59;;;;;;;4.45;1.60;;;;;;;;;;4975022;28;20186;-72
2023/01/12 06:51:26;;;;;;;5.07;1.70;;;;;;;;;;4977382;28;20030;-72
2023/01/12 06:53:52;;;;;;;3.78;1.58;;;;;;;;;;4978184;28;20061;-72
2023/01/12 06:56:18;;;;;;;7.30;1.83;;;;;;;;;;4977649;28;20457;-72
2023/01/12 06:58:44;;;;;;;6.85;1.65;;;;;;;;;;4974947;28;20018;-72
2023/01/12 07:01:12;;;;;;;4.45;1.73;;;;;;;;;;4978887;28;20042;-72
2023/01/12 07:03:38;;;;;;;9.00;1.85;;;;;;;;;;4978353;28;20056;-71
2023/01/12 07:06:05;;;;;;;4.68;1.52;;;;;;;;;;4972149;28;20042;-71
2023/01/12 07:08:32;;;;;;;3.92;1.60;;;;;;;;;;4977678;28;20036;-73
2023/01/12 07:11:06;;;;;;;4.38;2.85;;;;;;;;;;4972414;28;20011;-71
2023/01/12 07:13:33;;;;;;;4.75;1.45;;;;;;;;;;4980459;28;20030;-72
2023/01/12 07:16:00;;;;;;;2.75;1.77;;;;;;;;;;4973202;28;20034;-72
2023/01/12 07:18:26;;;;;;;6.72;2.00;;;;;;;;;;4979782;28;20196;-71
2023/01/12 07:20:53;;;;;;;6.53;1.73;;;;;;;;;;4974165;28;20018;-73
2023/01/12 07:23:19;;;;;;;7.18;1.60;;;;;;;;;;4977746;28;20027;-71
2023/01/12 07:25:45;;;;;;;7.70;2.35;;;;;;;;;;4975599;28;20105;-72
2023/01/12 07:28:11;;;;;;;4.47;1.83;;;;;;;;;;4973708;28;20022;-72
2023/01/12 07:30:38;;;;;;;5.43;1.50;;;;;;;;;;4977468;28;20027;-72
2023/01/12 07:33:07;;;;;;;6.32;1.75;;;;;;;;;;4973249;28;20101;-72
2023/01/12 07:35:34;;;;;;;5.47;1.30;;;;;;;;;;4977572;28;20112;-72
2023/01/12 07:38:00;;;;;;;3.65;1.55;;;;;;;;;;4975776;28;20561;-72
2023/01/12 07:40:26;;;;;;;3.30;1.23;;;;;;;;;;4976549;28;20033;-72
2023/01/12 07:43:02;;;;;;;6.15;1.60;;;;;;;;;;4974346;28;20606;-72
2023/01/12 07:45:29;;;;;;;5.35;1.92;;;;;;;;;;4975672;28;20027;-71
2023/01/12 07:47:55;;;;;;;3.42;1.55;;;;;;;;;;4973898;28;20085;-71
2023/01/12 07:50:22;;;;;;;4.85;1.60;;;;;;;;;;4972139;28;20550;-72
2023/01/12 07:52:48;;;;;;;5.90;1.90;;;;;;;;;;4970629;28;20034;-71
2023/01/12 07:55:18;;;;;;;5.20;1.48;;;;;;;;;;4977647;28;20094;-72
2023/01/12 07:57:57;;;;;;;3.85;1.30;;;;;;;;;;4976070;28;20045;-71
2023/01/12 08:00:24;;;;;;;2.70;1.15;;;;;;;;;;4971633;28;20072;-71
2023/01/12 08:02:50;;;;;;;2.97;1.40;;;;;;;;;;4977860;28;20565;-72
2023/01/12 08:05:17;;;;;;;6.47;2.05;;;;;;;;;;4977059;28;20023;-71
2023/01/12 08:07:43;;;;;;;5.32;1.55;;;;;;;;;;4978206;28;20417;-71
2023/01/12 08:10:10;;;;;;;5.82;1.83;;;;;;;;;;4975090;28;20097;-72
2023/01/12 08:12:36;;;;;;;6.38;1.70;;;;;;;;;;4982235;28;20095;-72
2023/01/12 08:15:03;;;;;;;4.13;2.05;;;;;;;;;;4977276;28;20542;-71
2023/01/12 08:17:31;;;;;;;6.90;2.05;;;;;;;;;;4982624;28;20026;-72
2023/01/12 08:20:00;;;;;;;7.22;1.90;;;;;;;;;;4979880;28;20053;-71
2023/01/12 08:22:34;;;;;;;8.52;2.42;;;;;;;;;;4979397;28;20043;-72
2023/01/12 08:25:06;;;;;;;9.75;2.60;;;;;;;;;;4975598;28;20028;-71
2023/01/12 08:27:33;;;;;;;5.13;1.90;;;;;;;;;;4978026;28;20026;-71
2023/01/12 08:30:03;;;;;;;4.18;1.60;;;;;;;;;;4976798;28;20034;-71
2023/01/12 08:32:29;;;;;;;9.07;1.80;;;;;;;;;;4980100;28;20415;-72
2023/01/12 08:34:59;;;;;;;8.70;2.45;;;;;;;;;;4979371;28;20029;-72
2023/01/12 08:37:27;;;;;;;6.30;2.13;;;;;;;;;;4980100;28;20037;-71
2023/01/12 08:39:54;;;;;;;7.40;2.40;;;;;;;;;;4975877;28;20092;-71
2023/01/12 08:42:22;;;;;;;10.13;1.85;;;;;;;;;;4980293;28;20511;-72
2023/01/12 08:44:49;;;;;;;4.70;2.15;;;;;;;;;;4977300;28;20081;-72
2023/01/12 08:47:19;;;;;;;6.60;2.15;;;;;;;;;;4978131;28;20156;-72
2023/01/12 08:49:46;;;;;;;5.05;2.17;;;;;;;;;;4976280;28;20030;-72
2023/01/12 08:52:12;;;;;;;5.50;2.15;;;;;;;;;;4982548;28;20080;-72
2023/01/12 08:54:38;;;;;;;4.13;2.08;;;;;;;;;;4978151;28;20446;-72
2023/01/12 08:57:04;;;;;;;6.18;1.85;;;;;;;;;;4975885;28;20018;-72
2023/01/12 08:59:31;;;;;;;4.22;2.00;;;;;;;;;;4975050;28;20023;-72
2023/01/12 09:01:57;;;;;;;9.43;2.05;;;;;;;;;;4980975;28;20034;-72
2023/01/12 09:04:23;;;;;;;9.52;2.30;;;;;;;;;;4971695;28;20055;-72
2023/01/12 09:06:49;;;;;;;8.10;2.03;;;;;;;;;;4981465;28;20026;-72
2023/01/12 09:09:18;;;;;;;8.15;2.10;;;;;;;;;;4976802;28;20015;-71
2023/01/12 09:11:44;;;;;;;5.25;2.45;;;;;;;;;;4982050;28;20713;-72
2023/01/12 09:14:11;;;;;;;5.80;2.42;;;;;;;;;;4975703;28;20025;-72
2023/01/12 09:16:37;;;;;;;8.60;2.03;;;;;;;;;;4979083;28;20030;-72
2023/01/12 09:19:03;;;;;;;9.88;2.95;;;;;;;;;;4980016;28;20098;-71
2023/01/12 09:21:31;;;;;;;6.63;2.33;;;;;;;;;;4977370;28;20035;-71
2023/01/12 09:23:57;;;;;;;8.15;2.05;;;;;;;;;;4981037;28;20062;-71
2023/01/12 09:26:30;;;;;;;8.57;2.08;;;;;;;;;;4978012;28;20027;-72
2023/01/12 09:28:58;;;;;;;7.15;2.15;;;;;;;;;;4977706;28;20077;-71
2023/01/12 09:31:24;;;;;;;9.65;1.90;;;;;;;;;;4976440;28;20092;-71
2023/01/12 09:33:52;;;;;;;5.45;1.60;;;;;;;;;;4977630;28;20150;-71
2023/01/12 09:36:19;;;;;;;4.40;1.80;;;;;;;;;;4984059;28;20082;-72
2023/01/12 09:38:46;;;;;;;5.50;1.77;;;;;;;;;;4980617;28;20391;-72
2023/01/12 09:47:18;;;;;;;7.78;2.22;;;;;;;;;;4981024;28;20037;-72
2023/01/12 09:49:47;;;;;;;13.50;2.40;;;;;;;;;;4982800;28;20073;-72
2023/01/12 09:52:21;;;;;;;8.48;2.08;;;;;;;;;;4977877;28;20037;-72
2023/01/12 09:54:49;;;;;;;6.93;1.88;;;;;;;;;;4975590;28;20076;-72
2023/01/12 09:57:34;;;;;;;12.45;2.10;;;;;;;;;;4976898;28;20188;-71
2023/01/12 10:00:00;;;;;;;7.93;2.35;;;;;;;;;;4981692;28;20022;-71
2023/01/12 10:02:26;;;;;;;9.63;2.30;;;;;;;;;;4980099;28;20046;-71
2023/01/12 10:04:53;;;;;;;10.35;2.20;;;;;;;;;;4979546;28;20026;-72
2023/01/12 10:07:20;;;;;;;5.75;1.65;;;;;;;;;;4976442;28;20084;-72
2023/01/12 10:09:46;;;;;;;12.70;2.70;;;;;;;;;;4974468;28;20019;-72
2023/01/12 10:12:15;;;;;;;5.57;2.20;;;;;;;;;;4978695;28;20234;-71
2023/01/12 10:14:47;;;;;;;6.30;1.98;;;;;;;;;;4981255;28;20022;-72
2023/01/12 10:17:13;;;;;;;7.25;1.95;;;;;;;;;;4977838;28;20018;-71
2023/01/12 10:19:49;;;;;;;5.43;1.77;;;;;;;;;;4977495;28;20378;-72
2023/01/12 10:22:37;;;;;;;9.85;1.83;;;;;;;;;;4981275;28;20124;-72
2023/01/12 10:25:24;;;;;;;3.47;1.42;;;;;;;;;;4978116;28;20031;-72
2023/01/12 10:27:52;;;;;;;9.23;1.90;;;;;;;;;;4971252;28;20062;-72
2023/01/12 10:30:24;;;;;;;5.72;1.65;;;;;;;;;;4982104;28;20019;-71
2023/01/12 10:32:50;;;;;;;10.13;1.90;;;;;;;;;;4973667;28;20033;-71
2023/01/12 10:35:18;;;;;;;11.35;1.85;;;;;;;;;;4975923;28;20026;-72
2023/01/12 10:37:48;;;;;;;10.93;1.70;;;;;;;;;;4974890;28;20023;-71
2023/01/12 10:40:26;;;;;;;7.35;1.73;;;;;;;;;;4967701;28;20065;-72
2023/01/12 10:45:43;;;;;;;10.65;2.15;;;;;;;;;;4971533;28;20189;-72
2023/01/12 10:48:16;;;;;;;8.45;2.55;;;;;;;;;;4975633;28;20738;-72
2023/01/12 10:50:43;;;;;;;7.97;1.98;;;;;;;;;;4979239;28;20035;-72
2023/01/12 10:53:19;;;;;;;9.32;1.80;;;;;;;;;;4972832;28;20023;-71
2023/01/12 10:55:46;;;;;;;4.40;1.50;;;;;;;;;;4980305;28;20030;-71
2023/01/12 10:58:24;;;;;;;6.30;1.50;;;;;;;;;;4977718;28;20044;-71
2023/01/12 11:00:51;;;;;;;7.15;1.63;;;;;;;;;;4973823;28;20450;-72
2023/01/12 11:03:43;;;;;;;6.30;1.58;;;;;;;;;;4977981;28;20112;-71
2023/01/12 11:06:22;;;;;;;11.73;1.58;;;;;;;;;;4973912;28;20038;-72
2023/01/12 11:08:48;;;;;;;8.38;1.60;;;;;;;;;;4976273;28;20026;-71
2023/01/12 11:11:20;;;;;;;5.35;2.10;;;;;;;;;;4978825;28;20458;-72
2023/01/12 11:13:47;;;;;;;11.32;1.90;;;;;;;;;;4978278;28;20650;-72
2023/01/12 11:16:16;;;;;;;8.27;1.65;;;;;;;;;;4978904;28;20037;-72
2023/01/12 11:18:46;;;;;;;5.50;2.03;;;;;;;;;;4977406;28;20022;-72
2023/01/12 11:21:14;;;;;;;4.47;1.60;;;;;;;;;;4974694;28;20506;-72
2023/01/12 11:23:46;;;;;;;8.52;1.50;;;;;;;;;;4980602;28;20034;-72
2023/01/12 11:26:12;;;;;;;;;;;;;;;;;;4974861;28;20064;-72
2023/01/12 11:28:42;;;;;;;6.60;1.55;;;;;;;;;;4976723;28;20378;-72
2023/01/12 11:31:12;;;;;;;10.35;2.05;;;;;;;;;;4975838;28;20010;-71
2023/01/12 11:33:44;;;;;;;7.93;1.98;;;;;;;;;;4974818;28;20594;-71
2023/01/12 11:36:36;;;;;;;9.60;2.45;;;;;;;;;;4974583;28;20726;-72
2023/01/12 11:39:07;;;;;;;5.85;1.50;;;;;;;;;;4971598;28;20454;-71
2023/01/12 11:44:56;;;;;;;8.85;1.98;;;;;;;;;;4974143;28;20506;-71
2023/01/12 11:47:24;;;;;;;6.88;2.38;;;;;;;;;;4980550;28;20310;-71
2023/01/12 11:49:59;;;;;;;8.68;2.08;;;;;;;;;;4976284;28;20058;-71
2023/01/12 11:52:26;;;;;;;9.70;2.42;;;;;;;;;;4976652;28;20121;-71
2023/01/12 11:54:52;;;;;;;12.63;3.13;;;;;;;;;;4976693;28;20026;-71
2023/01/12 11:57:19;;;;;;;14.65;2.65;;;;;;;;;;4978569;28;20792;-71
2023/01/12 12:00:14;;;;;;;11.75;2.15;;;;;;;;;;4975180;28;20036;-71
2023/01/12 12:02:40;;;;;;;8.30;2.55;;;;;;;;;;4976303;28;20054;-71
2023/01/12 12:05:16;;;;;;;8.07;2.10;;;;;;;;;;4977870;28;20022;-71
2023/01/12 12:08:08;;;;;;;7.35;2.35;;;;;;;;;;4972287;28;20042;-71
2023/01/12 12:10:40;;;;;;;13.50;2.33;;;;;;;;;;4975587;28;20049;-71
2023/01/12 12:13:25;;;;;;;13.10;2.70;;;;;;;;;;4978446;28;20078;-71
2023/01/12 12:15:56;;;;;;;14.27;2.83;;;;;;;;;;4973633;28;20023;-71
2023/01/12 12:18:46;;;;;;;13.00;2.80;;;;;;;;;;4973202;28;20041;-71
2023/01/12 12:21:18;;;;;;;17.58;3.10;;;;;;;;;;4958950;28;20038;-71
2023/01/12 12:23:47;;;;;;;10.07;3.00;;;;;;;;;;4972965;28;20026;-71
2023/01/12 12:26:13;;;;;;;12.55;2.92;;;;;;;;;;4973604;28;20053;-71
2023/01/12 12:29:06;;;;;;;13.93;2.75;;;;;;;;;;4972469;28;20049;-71
2023/01/12 12:31:36;;;;;;;17.00;2.60;;;;;;;;;;4956737;28;20615;-72
2023/01/12 12:34:06;;;;;;;11.40;2.65;;;;;;;;;;4971482;28;20142;-72
2023/01/12 12:36:40;;;;;;;13.38;2.50;;;;;;;;;;4976257;28;20066;-71
2023/01/12 12:39:14;;;;;;;11.25;2.05;;;;;;;;;;4975221;28;20054;-71
2023/01/12 12:47:47;;;;;;;9.93;2.30;;;;;;;;;;4972740;28;20137;-71
2023/01/12 12:50:28;;;;;;;13.05;2.45;;;;;;;;;;4968666;28;20156;-72
2023/01/12 12:53:12;;;;;;;14.25;2.65;;;;;;;;;;4973779;28;20470;-71
2023/01/12 12:55:38;;;;;;;14.13;3.70;;;;;;;;;;4976510;28;20061;-71
2023/01/12 12:58:20;;;;;;;8.27;2.08;;;;;;;;;;4977970;28;20014;-72
2023/01/12 13:00:47;;;;;;;13.35;3.30;;;;;;;;;;4981645;28;20405;-72
2023/01/12 13:03:32;;;;;;;16.23;3.05;;;;;;;;;;4974811;28;20141;-72
2023/01/12 13:06:11;;;;;;;8.63;2.40;;;;;;;;;;4976103;28;20467;-71
2023/01/12 13:08:38;;;;;;;10.63;2.95;;;;;;;;;;4980411;28;20030;-71
2023/01/12 13:11:05;;;;;;;12.88;2.90;;;;;;;;;;4979951;28;20033;-71
2023/01/12 13:13:33;;;;;;;11.38;3.58;;;;;;;;;;4979737;28;20613;-71
2023/01/12 13:16:11;;;;;;;15.13;6.43;;;;;;;;;;4978881;28;20030;-71
2023/01/12 13:18:42;;;;;;;35.38;14.27;;;;;;;;;;4968247;28;20029;-71
2023/01/12 13:21:26;;;;;;;24.35;8.35;;;;;;;;;;4976783;28;20419;-72
2023/01/12 13:24:11;;;;;;;14.73;4.40;;;;;;;;;;4973346;28;20042;-71
2023/01/12 13:26:39;;;;;;;15.27;3.75;;;;;;;;;;4969249;28;20408;-71
2023/01/12 13:29:24;;;;;;;13.43;3.00;;;;;;;;;;4979139;28;20551;-72
2023/01/12 13:31:51;;;;;;;11.60;3.42;;;;;;;;;;4972526;28;20883;-71
2023/01/12 13:34:35;;;;;;;15.57;2.90;;;;;;;;;;4973345;28;20031;-71
2023/01/12 13:37:06;;;;;;;14.88;3.60;;;;;;;;;;4971162;28;20026;-71
2023/01/12 13:39:36;;;;;;;11.50;3.88;;;;;;;;;;4973034;28;20567;-71
2023/01/12 13:44:48;;;;;;;12.27;2.65;;;;;;;;;;4976311;28;20053;-71
2023/01/12 13:47:17;;;;;;;10.75;3.45;;;;;;;;;;4973332;28;20041;-72
2023/01/12 13:49:45;;;;;;;12.38;2.78;;;;;;;;;;4978610;28;20022;-71
2023/01/12 13:52:38;;;;;;;11.82;2.55;;;;;;;;;;4976041;28;20526;-71
2023/01/12 13:55:17;;;;;;;13.90;2.30;;;;;;;;;;4970116;28;20149;-71
2023/01/12 13:57:54;;;;;;;5.80;2.22;;;;;;;;;;4976130;28;20030;-71
2023/01/12 14:00:22;;;;;;;12.15;2.50;;;;;;;;;;4973311;28;20167;-72
2023/01/12 14:02:49;;;;;;;12.30;2.25;;;;;;;;;;4978649;28;20514;-71
2023/01/12 14:05:15;;;;;;;11.90;2.65;;;;;;;;;;4974238;28;20546;-71
2023/01/12 14:07:51;;;;;;;9.60;3.20;;;;;;;;;;4978180;28;20026;-72
2023/01/12 14:10:42;;;;;;;7.60;2.22;;;;;;;;;;4976961;28;20105;-71
2023/01/12 14:13:27;;;;;;;10.80;1.80;;;;;;;;;;4975024;28;20109;-71
2023/01/12 14:18:45;;;;;;;10.90;2.42;;;;;;;;;;4974376;28;20045;-71
2023/01/12 14:21:33;;;;;;;5.97;2.05;;;;;;;;;;4973547;28;20034;-71
2023/01/12 14:24:08;;;;;;;5.18;1.67;;;;;;;;;;4975217;28;20030;-71
2023/01/12 14:26:34;;;;;;;11.85;3.05;;;;;;;;;;4973001;28;20030;-71
2023/01/12 14:29:01;;;;;;;10.52;2.08;;;;;;;;;;4973673;28;20023;-71
2023/01/12 14:31:38;;;;;;;9.15;1.77;;;;;;;;;;4978548;28;20708;-71
2023/01/12 14:34:05;;;;;;;5.32;1.42;;;;;;;;;;4971383;28;20458;-71
2023/01/12 14:36:35;;;;;;;10.93;2.45;;;;;;;;;;4978601;28;20506;-71
2023/01/12 14:39:06;;;;;;;8.48;1.40;;;;;;;;;;4971215;28;20022;-72
2023/01/12 14:47:06;;;;;;;10.02;1.33;;;;;;;;;;4977920;28;20037;-71
2023/01/12 14:49:34;;;;;;;9.25;1.85;;;;;;;;;;4976570;28;20034;-71
2023/01/12 14:52:02;;;;;;;5.82;1.58;;;;;;;;;;4974217;28;20395;-71
2023/01/12 14:54:32;;;;;;;6.07;1.30;;;;;;;;;;4976782;28;20026;-71
2023/01/12 14:57:00;;;;;;;4.80;1.42;;;;;;;;;;4975990;28;20030;-71
2023/01/12 14:59:32;;;;;;;5.20;0.95;;;;;;;;;;4974308;28;20546;-72
2023/01/12 15:02:13;;;;;;;5.65;1.33;;;;;;;;;;4973652;28;20056;-71
2023/01/12 15:04:51;;;;;;;5.43;1.15;;;;;;;;;;4968968;28;20035;-71
2023/01/12 15:07:19;;;;;;;7.32;1.52;;;;;;;;;;4972419;28;20022;-72
2023/01/12 15:09:53;;;;;;;4.78;1.15;;;;;;;;;;4974335;28;20037;-71
2023/01/12 15:12:25;;;;;;;4.28;1.40;;;;;;;;;;4971463;28;21449;-71
2023/01/12 15:14:51;;;;;;;5.57;1.40;;;;;;;;;;4976480;28;20050;-72
2023/01/12 15:25:48;;;;;;;6.30;1.33;;;;;;;;;;4916855;29;20043;-71
2023/01/12 15:28:14;;;;;;;4.82;1.20;;;;;;;;;;4958635;28;20042;-71
2023/01/12 15:30:41;;;;;;;9.38;1.20;;;;;;;;;;4976152;28;20030;-71
2023/01/12 15:33:08;;;;;;;6.88;1.30;;;;;;;;;;4976312;28;20140;-72
2023/01/12 15:35:35;;;;;;;5.65;1.45;;;;;;;;;;4970877;28;20027;-71
2023/01/12 15:38:01;;;;;;;5.65;1.33;;;;;;;;;;4975132;28;20034;-71
2023/01/12 15:40:28;;;;;;;4.90;1.23;;;;;;;;;;4971408;28;20585;-71
2023/01/12 15:42:57;;;;;;;6.30;1.70;;;;;;;;;;4977289;28;20037;-71
2023/01/12 15:45:39;;;;;;;5.63;1.13;;;;;;;;;;4967726;28;20114;-72
2023/01/12 15:48:07;;;;;;;5.97;1.90;;;;;;;;;;4974384;28;20030;-71
2023/01/12 15:50:33;;;;;;;9.00;2.05;;;;;;;;;;4968157;28;20057;-71
2023/01/12 15:53:01;;;;;;;11.43;2.88;;;;;;;;;;4975357;28;20027;-71